Star Epsilon — V7NZ7 — position and weather

sailwx.info

Track history (hours):
 
Tides and Currents Weather Stations Pressure Air Temp Water Temp Dewpoint Dewpoint Depression Visibility Wind Speed Wind Dir Waves Ship Positions

Star Epsilon

Last reported at 2018-May-23 14:54 UTC. Time now 2018-May-23 16:30 UTC.
Position N 09°31' W 013°43'.

Length 189 m; draft 8.4 m.

Type: Ship. MMSI: 538003043.

Date/timePositionNaut miles runAvg speedWind from/ knotsBaromVisibWave heightAir tempDewpointWater temp
2018-May-23 14:54N 09°31' W 013°43'0 0.0
2018-May-23 14:30N 09°31' W 013°43'0 0.0
2018-May-23 14:00N 09°31' W 013°43'0 0.0
2018-May-23 13:30N 09°31' W 013°43'0 0.0
2018-May-23 13:00N 09°31' W 013°43'0 0.0
2018-May-23 12:31N 09°31' W 013°43'0 0.0
2018-May-23 12:00N 09°31' W 013°43'0 0.0
2018-May-23 11:30N 09°31' W 013°43'0 0.0
2018-May-23 11:00N 09°31' W 013°43'0 0.0
2018-May-23 10:30N 09°31' W 013°43'0 0.0
2018-May-23 10:00N 09°31' W 013°43'0 0.0
2018-May-23 09:30N 09°31' W 013°43'0 0.0
2018-May-23 09:00N 09°31' W 013°43'0 0.0
2018-May-23 08:27N 09°31' W 013°43'0 0.0
2018-May-23 08:00N 09°31' W 013°43'0 0.0
2018-May-23 07:31N 09°31' W 013°43'0 0.0
2018-May-23 07:00N 09°31' W 013°43'0 0.0
2018-May-23 06:30N 09°31' W 013°43'0 0.0
2018-May-23 06:00N 09°31' W 013°43'0 0.0
2018-May-23 05:30N 09°31' W 013°43'0 0.0
2018-May-23 05:01N 09°31' W 013°43'0 0.0
2018-May-23 04:30N 09°31' W 013°43'0 0.0
2018-May-23 04:00N 09°31' W 013°43'0 0.0
2018-May-23 03:30N 09°31' W 013°43'0 0.0
2018-May-23 03:01N 09°31' W 013°43'0 0.0
2018-May-23 02:30N 09°31' W 013°43'0 0.0
2018-May-23 02:00N 09°31' W 013°43'0 0.0
2018-May-23 00:15N 09°31' W 013°43'0 0.0
2018-May-23 00:00N 09°31' W 013°43'0 0.0
2018-May-22 23:30N 09°31' W 013°43'0 0.0
2018-May-22 23:00N 09°31' W 013°43'0 0.0
2018-May-22 22:27N 09°31' W 013°43'0 0.0
2018-May-22 22:00N 09°31' W 013°43'0 0.0
2018-May-22 21:30N 09°31' W 013°43'0 0.0
2018-May-22 21:00N 09°31' W 013°43'0 0.0
2018-May-22 20:30N 09°31' W 013°43'0 0.0
2018-May-22 20:00N 09°31' W 013°43'0 0.0
2018-May-22 19:30N 09°31' W 013°43'0 0.0
2018-May-22 19:00N 09°31' W 013°43'0 0.0
2018-May-22 18:31N 09°31' W 013°43'0 0.0
2018-May-22 18:01N 09°31' W 013°43'0 0.0
2018-May-22 17:30N 09°31' W 013°43'0 0.0
2018-May-22 17:00N 09°31' W 013°43'0 0.0
2018-May-22 16:30N 09°31' W 013°43'0 0.0
2018-May-22 16:00N 09°31' W 013°43'0 0.0
2018-May-22 15:31N 09°31' W 013°43'0 0.0
2018-May-22 15:00N 09°31' W 013°43'0 0.0
2018-May-22 14:30N 09°31' W 013°43'0 0.0
2018-May-22 14:00N 09°31' W 013°43'0 0.0
2018-May-22 13:30N 09°31' W 013°43'0 0.0
2018-May-22 13:00N 09°31' W 013°43'0 0.0
2018-May-22 12:30N 09°31' W 013°43'0 0.0
2018-May-22 11:57N 09°31' W 013°43'0 0.0
2018-May-22 11:30N 09°31' W 013°43'0 0.0
2018-May-22 10:54N 09°31' W 013°43'0 0.0
2018-May-22 10:30N 09°31' W 013°43'0 0.0
2018-May-22 09:57N 09°31' W 013°43'0 0.0
2018-May-22 00:12N 09°31' W 013°43'0 0.0
2018-May-22 00:00N 09°31' W 013°43'0 0.0
2018-May-21 23:31N 09°31' W 013°43'0 0.2
2018-May-21 23:00N 09°31' W 013°43'2 4.2
2018-May-21 22:31N 09°29' W 013°44'3 5.1
2018-May-21 22:01N 09°27' W 013°43'0 0.6
2018-May-21 21:31N 09°27' W 013°43'2 3.7
2018-May-21 21:00N 09°25' W 013°44'5 9.9
2018-May-21 20:30N 09°20' W 013°42'2 3.9
2018-May-21 20:01N 09°19' W 013°41'1 1.8
2018-May-21 19:30N 09°20' W 013°41'1 2.5
2018-May-21 19:00N 09°21' W 013°42'2 3.9
2018-May-21 18:31N 09°22' W 013°43'46 8.0
2018-May-21 12:42N 08°50' W 014°17'0 0.6
2018-May-21 12:31N 08°50' W 014°18'15 0.7
2018-May-20 15:10N 08°40' W 014°28'0 0.7
2018-May-20 15:00N 08°40' W 014°28'1 0.8
2018-May-20 13:40N 08°39' W 014°29'0 0.4
2018-May-20 13:29N 08°39' W 014°29'3 0.5
2018-May-20 07:14N 08°37' W 014°32'0 0.3
2018-May-20 05:28N 08°37' W 014°32'0 0.1
2018-May-20 03:45N 08°37' W 014°32'0 0.1
2018-May-20 02:32N 08°37' W 014°32'0 0.0
2018-May-20 01:50N 08°37' W 014°32'0 0.0
2018-May-20 01:30N 08°37' W 014°32'0 0.1
2018-May-20 01:00N 08°37' W 014°32'0 0.1
2018-May-20 00:25N 08°37' W 014°32'0 0.1
2018-May-20 00:01N 08°37' W 014°32'0 0.4
2018-May-19 23:30N 08°37' W 014°32'1 2.0
2018-May-19 22:59N 08°36' W 014°32'  
Track history (hours):
 
Tides and Currents Weather Stations Pressure Air Temp Water Temp Dewpoint Dewpoint Depression Visibility Wind Speed Wind Dir Waves Ship Positions

Star Epsilon

Last reported at 2018-May-23 14:54 UTC. Time now 2018-May-23 16:30 UTC.
Position N 09°31' W 013°43'.

Length 189 m; draft 8.4 m.

Type: Ship. MMSI: 538003043.

Date/timePositionNaut miles runAvg speedWind from/ knotsBaromVisibWave heightAir tempDewpointWater temp
2018-May-23 14:54N 09°31' W 013°43'0 0.0
2018-May-23 14:30N 09°31' W 013°43'0 0.0
2018-May-23 14:00N 09°31' W 013°43'0 0.0
2018-May-23 13:30N 09°31' W 013°43'0 0.0
2018-May-23 13:00N 09°31' W 013°43'0 0.0
2018-May-23 12:31N 09°31' W 013°43'0 0.0
2018-May-23 12:00N 09°31' W 013°43'0 0.0
2018-May-23 11:30N 09°31' W 013°43'0 0.0
2018-May-23 11:00N 09°31' W 013°43'0 0.0
2018-May-23 10:30N 09°31' W 013°43'0 0.0
2018-May-23 10:00N 09°31' W 013°43'0 0.0
2018-May-23 09:30N 09°31' W 013°43'0 0.0
2018-May-23 09:00N 09°31' W 013°43'0 0.0
2018-May-23 08:27N 09°31' W 013°43'0 0.0
2018-May-23 08:00N 09°31' W 013°43'0 0.0
2018-May-23 07:31N 09°31' W 013°43'0 0.0
2018-May-23 07:00N 09°31' W 013°43'0 0.0
2018-May-23 06:30N 09°31' W 013°43'0 0.0
2018-May-23 06:00N 09°31' W 013°43'0 0.0
2018-May-23 05:30N 09°31' W 013°43'0 0.0
2018-May-23 05:01N 09°31' W 013°43'0 0.0
2018-May-23 04:30N 09°31' W 013°43'0 0.0
2018-May-23 04:00N 09°31' W 013°43'0 0.0
2018-May-23 03:30N 09°31' W 013°43'0 0.0
2018-May-23 03:01N 09°31' W 013°43'0 0.0
2018-May-23 02:30N 09°31' W 013°43'0 0.0
2018-May-23 02:00N 09°31' W 013°43'0 0.0
2018-May-23 00:15N 09°31' W 013°43'0 0.0
2018-May-23 00:00N 09°31' W 013°43'0 0.0
2018-May-22 23:30N 09°31' W 013°43'0 0.0
2018-May-22 23:00N 09°31' W 013°43'0 0.0
2018-May-22 22:27N 09°31' W 013°43'0 0.0
2018-May-22 22:00N 09°31' W 013°43'0 0.0
2018-May-22 21:30N 09°31' W 013°43'0 0.0
2018-May-22 21:00N 09°31' W 013°43'0 0.0
2018-May-22 20:30N 09°31' W 013°43'0 0.0
2018-May-22 20:00N 09°31' W 013°43'0 0.0
2018-May-22 19:30N 09°31' W 013°43'0 0.0
2018-May-22 19:00N 09°31' W 013°43'0 0.0
2018-May-22 18:31N 09°31' W 013°43'0 0.0
2018-May-22 18:01N 09°31' W 013°43'0 0.0
2018-May-22 17:30N 09°31' W 013°43'0 0.0
2018-May-22 17:00N 09°31' W 013°43'0 0.0
2018-May-22 16:30N 09°31' W 013°43'0 0.0
2018-May-22 16:00N 09°31' W 013°43'0 0.0
2018-May-22 15:31N 09°31' W 013°43'0 0.0
2018-May-22 15:00N 09°31' W 013°43'0 0.0
2018-May-22 14:30N 09°31' W 013°43'0 0.0
2018-May-22 14:00N 09°31' W 013°43'0 0.0
2018-May-22 13:30N 09°31' W 013°43'0 0.0
2018-May-22 13:00N 09°31' W 013°43'0 0.0
2018-May-22 12:30N 09°31' W 013°43'0 0.0
2018-May-22 11:57N 09°31' W 013°43'0 0.0
2018-May-22 11:30N 09°31' W 013°43'0 0.0
2018-May-22 10:54N 09°31' W 013°43'0 0.0
2018-May-22 10:30N 09°31' W 013°43'0 0.0
2018-May-22 09:57N 09°31' W 013°43'0 0.0
2018-May-22 00:12N 09°31' W 013°43'0 0.0
2018-May-22 00:00N 09°31' W 013°43'0 0.0
2018-May-21 23:31N 09°31' W 013°43'0 0.2
2018-May-21 23:00N 09°31' W 013°43'2 4.2
2018-May-21 22:31N 09°29' W 013°44'3 5.1
2018-May-21 22:01N 09°27' W 013°43'0 0.6
2018-May-21 21:31N 09°27' W 013°43'2 3.7
2018-May-21 21:00N 09°25' W 013°44'5 9.9
2018-May-21 20:30N 09°20' W 013°42'2 3.9
2018-May-21 20:01N 09°19' W 013°41'1 1.8
2018-May-21 19:30N 09°20' W 013°41'1 2.5
2018-May-21 19:00N 09°21' W 013°42'2 3.9
2018-May-21 18:31N 09°22' W 013°43'46 8.0
2018-May-21 12:42N 08°50' W 014°17'0 0.6
2018-May-21 12:31N 08°50' W 014°18'15 0.7
2018-May-20 15:10N 08°40' W 014°28'0 0.7
2018-May-20 15:00N 08°40' W 014°28'1 0.8
2018-May-20 13:40N 08°39' W 014°29'0 0.4
2018-May-20 13:29N 08°39' W 014°29'3 0.5
2018-May-20 07:14N 08°37' W 014°32'0 0.3
2018-May-20 05:28N 08°37' W 014°32'0 0.1
2018-May-20 03:45N 08°37' W 014°32'0 0.1
2018-May-20 02:32N 08°37' W 014°32'0 0.0
2018-May-20 01:50N 08°37' W 014°32'0 0.0
2018-May-20 01:30N 08°37' W 014°32'0 0.1
2018-May-20 01:00N 08°37' W 014°32'0 0.1
2018-May-20 00:25N 08°37' W 014°32'0 0.1
2018-May-20 00:01N 08°37' W 014°32'0 0.4
2018-May-19 23:30N 08°37' W 014°32'1 2.0
2018-May-19 22:59N 08°36' W 014°32'  

Dump ship's entire track history